createdAt,value
2019-01-12T00:02:22.977Z,90.10
2019-01-12T00:04:51.205Z,90.10
2019-01-12T00:07:19.465Z,89.90
2019-01-12T00:09:47.936Z,90.10
2019-01-12T00:12:16.062Z,89.70
2019-01-12T00:14:44.472Z,89.70
2019-01-12T00:17:12.892Z,89.40
2019-01-12T00:19:41.043Z,89.70
2019-01-12T00:22:09.312Z,89.90
2019-01-12T00:24:37.411Z,89.90
2019-01-12T00:27:05.600Z,89.90
2019-01-12T00:29:33.660Z,89.70
2019-01-12T00:32:02.221Z,89.70
2019-01-12T00:34:30.349Z,89.90
2019-01-12T00:36:58.505Z,89.90
2019-01-12T00:39:27.867Z,89.40
2019-01-12T00:41:56.227Z,89.60
2019-01-12T00:44:24.601Z,89.70
2019-01-12T00:46:52.595Z,89.60
2019-01-12T00:49:20.671Z,89.60
2019-01-12T00:51:48.822Z,89.60
2019-01-12T00:54:17.020Z,89.40
2019-01-12T00:56:45.269Z,89.00
2019-01-12T00:59:13.727Z,89.00
2019-01-12T01:01:41.894Z,88.80
2019-01-12T01:04:10.016Z,88.80
2019-01-12T01:06:38.395Z,88.40
2019-01-12T01:09:08.412Z,88.20
2019-01-12T01:11:36.690Z,88.20
2019-01-12T01:14:04.766Z,88.20
2019-01-12T01:16:33.323Z,88.20
2019-01-12T01:19:01.623Z,88.20
2019-01-12T01:21:30.207Z,88.20
2019-01-12T01:23:58.514Z,88.10
2019-01-12T01:26:26.782Z,88.10
2019-01-12T01:28:54.935Z,88.10
2019-01-12T01:31:23.305Z,87.90
2019-01-12T01:33:51.899Z,88.10
2019-01-12T01:36:21.223Z,87.90
2019-01-12T01:38:49.398Z,88.10
2019-01-12T01:41:17.502Z,87.90
2019-01-12T01:43:45.690Z,87.90
2019-01-12T01:46:13.812Z,87.70
2019-01-12T01:48:41.994Z,87.70
2019-01-12T01:51:10.161Z,87.50
2019-01-12T01:53:37.643Z,87.50
2019-01-12T01:56:05.610Z,87.70
2019-01-12T01:58:34.101Z,87.90
2019-01-12T02:01:02.178Z,87.70
2019-01-12T02:03:30.450Z,88.10
2019-01-12T02:05:58.435Z,88.40
2019-01-12T02:08:26.541Z,89.00
2019-01-12T02:10:54.679Z,89.00
2019-01-12T02:13:22.843Z,88.80
2019-01-12T02:15:50.893Z,88.40
2019-01-12T02:18:19.089Z,88.80
2019-01-12T02:20:47.266Z,88.80
2019-01-12T02:23:15.558Z,89.20
2019-01-12T02:25:44.126Z,89.70
2019-01-12T02:28:12.206Z,90.10
2019-01-12T02:30:40.411Z,90.10
2019-01-12T02:33:08.549Z,89.90
2019-01-12T02:35:36.817Z,89.60
2019-01-12T02:38:05.032Z,89.20
2019-01-12T02:40:33.223Z,89.70
2019-01-12T02:43:01.547Z,90.10
2019-01-12T02:45:29.721Z,89.90
2019-01-12T02:47:57.869Z,89.60
2019-01-12T02:50:26.147Z,89.70
2019-01-12T02:52:54.173Z,89.70
2019-01-12T02:55:22.135Z,90.10
2019-01-12T02:57:50.321Z,90.10
2019-01-12T03:00:18.989Z,90.20
2019-01-12T03:02:47.663Z,90.10
2019-01-12T03:05:15.785Z,90.10
2019-01-12T03:07:44.929Z,89.70
2019-01-12T03:10:14.692Z,89.70
2019-01-12T03:12:43.021Z,89.70
2019-01-12T03:15:13.419Z,89.70
2019-01-12T03:17:41.829Z,89.40
2019-01-12T03:20:12.051Z,89.60
2019-01-12T03:22:40.164Z,89.60
2019-01-12T03:25:17.148Z,89.40
2019-01-12T03:27:38.866Z,89.40
2019-01-12T03:30:12.743Z,89.70
2019-01-12T03:32:40.840Z,90.10
2019-01-12T03:35:09.634Z,90.10
2019-01-12T03:37:37.863Z,90.10
2019-01-12T03:40:07.993Z,90.10
2019-01-12T03:42:36.225Z,89.90
2019-01-12T03:45:05.808Z,89.70
2019-01-12T03:47:33.970Z,90.10
2019-01-12T03:50:02.133Z,89.90
2019-01-12T03:52:30.247Z,89.70
2019-01-12T03:54:58.366Z,89.60
2019-01-12T03:57:26.856Z,89.40
2019-01-12T03:59:54.985Z,89.20
2019-01-12T04:02:23.078Z,89.40
2019-01-12T04:04:51.242Z,89.40
2019-01-12T04:07:19.424Z,89.70
2019-01-12T04:09:47.485Z,89.90
2019-01-12T04:12:15.668Z,90.10
2019-01-12T04:14:43.899Z,90.20
2019-01-12T04:17:11.899Z,90.70
2019-01-12T04:19:40.142Z,91.00
2019-01-12T04:22:08.324Z,91.30
2019-01-12T04:24:36.424Z,91.30
2019-01-12T04:27:04.716Z,91.40
2019-01-12T04:29:32.893Z,91.60
2019-01-12T04:32:01.074Z,91.30
2019-01-12T04:34:29.248Z,91.10
2019-01-12T04:36:57.383Z,91.10
2019-01-12T04:39:25.486Z,90.90
2019-01-12T04:41:53.725Z,91.20
2019-01-12T04:44:22.712Z,91.50
2019-01-12T04:46:51.024Z,91.60
2019-01-12T04:49:19.271Z,91.40
2019-01-12T04:51:47.361Z,91.40
2019-01-12T04:54:15.540Z,91.10
2019-01-12T04:56:43.721Z,91.00
2019-01-12T04:59:11.881Z,90.90
2019-01-12T05:01:40.091Z,90.70
2019-01-12T05:04:08.145Z,90.40
2019-01-12T05:06:36.496Z,90.30
2019-01-12T05:09:07.249Z,90.20
2019-01-12T05:11:35.429Z,90.10
2019-01-12T05:14:03.484Z,89.90
2019-01-12T05:16:31.855Z,89.70
2019-01-12T05:18:59.927Z,89.70
2019-01-12T05:21:28.000Z,89.20
2019-01-12T05:23:56.116Z,89.60
2019-01-12T05:26:24.276Z,89.60
2019-01-12T05:28:52.450Z,89.40
2019-01-12T05:31:20.610Z,89.60
2019-01-12T05:33:48.700Z,89.60
2019-01-12T05:36:16.863Z,89.40
2019-01-12T05:38:45.030Z,89.40
2019-01-12T05:41:13.284Z,89.40
2019-01-12T05:43:41.347Z,89.70
2019-01-12T05:46:09.694Z,89.90
2019-01-12T05:48:37.955Z,90.10
2019-01-12T05:51:06.210Z,90.10
2019-01-12T05:53:34.173Z,90.10
2019-01-12T05:56:02.187Z,90.20
2019-01-12T05:58:30.405Z,90.40
2019-01-12T06:00:58.241Z,90.50
2019-01-12T06:03:26.788Z,90.60
2019-01-12T06:05:55.187Z,90.70
2019-01-12T06:08:35.607Z,90.70
2019-01-12T06:11:03.596Z,90.90
2019-01-12T06:13:31.883Z,90.90
2019-01-12T06:15:59.939Z,91.00
2019-01-12T06:18:28.094Z,91.00
2019-01-12T06:20:55.973Z,91.00
2019-01-12T06:23:23.977Z,91.20
2019-01-12T06:25:52.032Z,91.20
2019-01-12T06:28:20.005Z,91.20
2019-01-12T06:30:48.080Z,91.30
2019-01-12T06:33:15.941Z,91.50
2019-01-12T06:35:44.091Z,91.70
2019-01-12T06:38:12.390Z,91.70
2019-01-12T06:40:40.536Z,91.70
2019-01-12T06:43:08.753Z,91.80
2019-01-12T06:45:37.195Z,91.90
2019-01-12T06:48:05.163Z,92.10
2019-01-12T06:50:33.747Z,92.20
2019-01-12T06:53:02.024Z,92.20
2019-01-12T06:55:30.315Z,92.20
2019-01-12T06:57:58.486Z,92.30
2019-01-12T07:00:26.675Z,92.30
2019-01-12T07:02:54.955Z,92.30
2019-01-12T07:05:23.031Z,92.30
2019-01-12T07:07:51.240Z,92.50
2019-01-12T07:10:19.163Z,92.40
2019-01-12T07:12:47.246Z,92.40
2019-01-12T07:15:15.407Z,92.50
2019-01-12T07:17:43.498Z,92.50
2019-01-12T07:20:13.341Z,92.60
2019-01-12T07:22:41.661Z,92.50
2019-01-12T07:25:09.826Z,92.40
2019-01-12T07:27:38.035Z,92.30
2019-01-12T07:30:14.509Z,92.30
2019-01-12T07:32:42.661Z,92.30
2019-01-12T07:35:11.140Z,92.20
2019-01-12T07:37:39.136Z,92.20
2019-01-12T07:40:07.876Z,92.10
2019-01-12T07:42:36.001Z,92.20
2019-01-12T07:45:05.446Z,92.10
2019-01-12T07:47:33.973Z,92.00
2019-01-12T07:50:03.293Z,91.90
2019-01-12T07:52:31.416Z,92.00
2019-01-12T07:54:59.721Z,92.00
2019-01-12T07:57:27.928Z,92.00
2019-01-12T07:59:55.990Z,91.90
2019-01-12T08:02:24.171Z,91.80
2019-01-12T08:04:52.614Z,91.90
2019-01-12T08:10:00.098Z,91.80
2019-01-12T08:12:28.370Z,91.60
2019-01-12T08:14:56.823Z,91.50
2019-01-12T08:17:25.477Z,91.40
2019-01-12T08:19:53.574Z,91.40
2019-01-12T08:22:23.061Z,91.30
2019-01-12T08:24:51.472Z,91.20
2019-01-12T08:27:19.652Z,91.10
2019-01-12T08:29:47.636Z,91.10
2019-01-12T08:32:16.205Z,91.10
2019-01-12T08:34:44.347Z,90.90
2019-01-12T08:37:12.353Z,91.10
2019-01-12T08:39:40.439Z,90.90
2019-01-12T08:42:08.613Z,90.90
2019-01-12T08:44:36.703Z,90.70
2019-01-12T08:47:04.737Z,90.80
2019-01-12T08:49:32.954Z,90.70
2019-01-12T08:52:01.107Z,90.60
2019-01-12T08:54:30.098Z,90.50
2019-01-12T08:56:58.789Z,90.50
2019-01-12T08:59:26.637Z,90.40
2019-01-12T09:01:54.644Z,90.40
2019-01-12T09:04:23.208Z,90.30
2019-01-12T09:06:51.374Z,90.20
2019-01-12T09:09:19.967Z,90.20
2019-01-12T09:11:47.898Z,90.30
2019-01-12T09:14:16.006Z,90.50
2019-01-12T09:16:44.313Z,90.40
2019-01-12T09:19:11.904Z,90.60
2019-01-12T09:21:39.510Z,90.80
2019-01-12T09:24:07.091Z,90.80
2019-01-12T09:26:36.264Z,90.60
2019-01-12T09:29:03.705Z,90.30
2019-01-12T09:31:31.261Z,89.90
2019-01-12T09:33:58.779Z,89.70
2019-01-12T09:36:26.267Z,90.10
2019-01-12T09:38:53.708Z,89.90
2019-01-12T09:41:21.255Z,89.90
2019-01-12T09:43:48.706Z,90.10
2019-01-12T09:46:16.251Z,89.70
2019-01-12T09:48:43.982Z,89.70
2019-01-12T09:51:11.500Z,89.60
2019-01-12T09:53:39.127Z,89.70
2019-01-12T09:56:06.965Z,89.70
2019-01-12T09:58:34.533Z,89.70
2019-01-12T10:01:02.062Z,89.70
2019-01-12T10:03:29.604Z,89.60
2019-01-12T10:05:57.084Z,89.70
2019-01-12T10:08:24.678Z,89.60
2019-01-12T10:10:52.300Z,89.40
2019-01-12T10:13:20.030Z,89.20
2019-01-12T10:15:47.594Z,89.00
2019-01-12T10:18:15.294Z,89.00
2019-01-12T10:20:42.935Z,89.00
2019-01-12T10:23:10.708Z,89.00
2019-01-12T10:25:38.389Z,88.80
2019-01-12T10:28:06.061Z,89.20
2019-01-12T10:30:33.861Z,89.20
2019-01-12T10:33:01.389Z,89.40
2019-01-12T10:35:28.898Z,89.00
2019-01-12T10:37:56.399Z,89.00
2019-01-12T10:40:24.102Z,88.20
2019-01-12T10:42:51.708Z,87.30
2019-01-12T10:45:21.540Z,87.50
2019-01-12T10:47:51.254Z,87.10
2019-01-12T10:50:21.884Z,86.80
2019-01-12T10:52:49.651Z,86.60
2019-01-12T10:55:17.262Z,85.60
2019-01-12T10:57:45.470Z,85.10
2019-01-12T11:00:16.833Z,84.90
2019-01-12T11:02:44.541Z,84.50
2019-01-12T11:05:12.270Z,84.70
2019-01-12T11:07:39.933Z,84.70
2019-01-12T11:10:09.753Z,84.10
2019-01-12T11:12:37.606Z,84.70
2019-01-12T11:15:08.374Z,85.10
2019-01-12T11:17:35.869Z,84.90
2019-01-12T11:20:04.281Z,84.70
2019-01-12T11:22:31.946Z,84.90
2019-01-12T11:24:59.441Z,84.90
2019-01-12T11:27:27.049Z,84.70
2019-01-12T11:29:54.693Z,85.30
2019-01-12T11:32:22.274Z,85.80
2019-01-12T11:34:49.963Z,86.00
2019-01-12T11:37:17.491Z,85.60
2019-01-12T11:39:44.950Z,85.60
2019-01-12T11:42:12.507Z,85.30
2019-01-12T11:44:39.979Z,85.10
2019-01-12T11:47:07.523Z,85.30
2019-01-12T11:49:35.072Z,85.10
2019-01-12T11:52:03.260Z,84.90
2019-01-12T11:54:30.901Z,84.90
2019-01-12T11:56:58.445Z,84.70
2019-01-12T11:59:25.958Z,85.10
2019-01-12T12:01:53.701Z,84.50
2019-01-12T12:04:21.391Z,85.10
2019-01-12T12:06:48.962Z,85.10
2019-01-12T12:09:16.803Z,84.10
2019-01-12T12:11:44.661Z,85.10
2019-01-12T12:14:12.279Z,84.90
2019-01-12T12:16:39.932Z,84.30
2019-01-12T12:19:11.721Z,84.50
2019-01-12T12:21:39.341Z,83.80
2019-01-12T12:24:07.174Z,84.10
2019-01-12T12:26:34.599Z,83.40
2019-01-12T12:29:02.178Z,83.60
2019-01-12T12:31:29.639Z,83.60
2019-01-12T12:33:57.128Z,83.40
2019-01-12T12:36:24.733Z,83.60
2019-01-12T12:38:52.305Z,83.80
2019-01-12T12:41:19.889Z,84.00
2019-01-12T12:43:47.526Z,83.80
2019-01-12T12:46:15.116Z,84.00
2019-01-12T12:48:42.593Z,84.00
2019-01-12T12:51:10.077Z,84.50
2019-01-12T12:53:37.493Z,84.70
2019-01-12T12:56:05.055Z,85.30
2019-01-12T12:58:45.230Z,85.30
2019-01-12T13:01:13.505Z,85.30
2019-01-12T13:03:41.798Z,86.00
2019-01-12T13:06:10.067Z,86.20
2019-01-12T13:08:38.103Z,86.40
2019-01-12T13:11:06.673Z,86.40
2019-01-12T13:13:34.992Z,86.90
2019-01-12T13:16:03.516Z,86.20
2019-01-12T13:18:31.684Z,86.20
2019-01-12T13:21:00.014Z,86.40
2019-01-12T13:23:28.545Z,86.00
2019-01-12T13:25:56.605Z,86.00
2019-01-12T13:28:24.618Z,86.20
2019-01-12T13:31:05.447Z,86.20
2019-01-12T13:33:33.475Z,86.60
2019-01-12T13:36:01.571Z,86.60
2019-01-12T13:38:29.962Z,86.00
2019-01-12T13:40:58.268Z,87.10
2019-01-12T13:43:26.598Z,87.50
2019-01-12T13:45:54.887Z,87.90
2019-01-12T13:48:23.311Z,88.20
2019-01-12T13:50:51.526Z,88.20
2019-01-12T13:53:19.852Z,89.20
2019-01-12T13:55:47.898Z,89.70
2019-01-12T13:58:19.833Z,90.10
2019-01-12T14:00:48.105Z,90.20
2019-01-12T14:03:16.267Z,90.20
2019-01-12T14:05:44.166Z,90.10
2019-01-12T14:08:12.486Z,90.30
2019-01-12T14:10:40.434Z,90.50
2019-01-12T14:13:08.710Z,90.80
2019-01-12T14:15:36.967Z,90.90
2019-01-12T14:18:05.897Z,90.70
2019-01-12T14:20:36.562Z,90.80
2019-01-12T14:23:04.938Z,90.80
2019-01-12T14:25:32.870Z,91.10
2019-01-12T14:28:01.098Z,91.10
2019-01-12T14:30:29.141Z,90.90
2019-01-12T14:32:57.977Z,90.80
2019-01-12T14:35:26.143Z,91.20
2019-01-12T14:37:54.512Z,90.80
2019-01-12T14:40:22.730Z,90.60
2019-01-12T14:42:50.803Z,90.80
2019-01-12T14:45:23.506Z,90.50
2019-01-12T14:47:51.681Z,90.60
2019-01-12T14:50:19.849Z,91.30
2019-01-12T14:52:47.911Z,90.90
2019-01-12T14:55:16.507Z,90.70
2019-01-12T14:57:44.665Z,90.50
2019-01-12T15:00:20.676Z,90.70
2019-01-12T15:02:48.891Z,90.40
2019-01-12T15:05:18.843Z,90.50
2019-01-12T15:07:46.951Z,90.50
2019-01-12T15:10:16.257Z,90.60
2019-01-12T15:12:44.861Z,90.40
2019-01-12T15:15:13.517Z,90.60
2019-01-12T15:17:41.733Z,90.60
2019-01-12T15:20:13.096Z,90.40
2019-01-12T15:22:41.157Z,90.40
2019-01-12T15:25:09.901Z,90.20
2019-01-12T15:27:37.994Z,90.10
2019-01-12T15:30:10.376Z,89.90
2019-01-12T15:32:38.704Z,89.60
2019-01-12T15:35:06.897Z,89.60
2019-01-12T15:37:34.804Z,89.20
2019-01-12T15:40:04.101Z,88.60
2019-01-12T15:42:33.570Z,88.40
2019-01-12T15:45:02.199Z,88.10
2019-01-12T15:47:30.561Z,87.50
2019-01-12T15:49:58.709Z,87.70
2019-01-12T15:52:26.912Z,87.70
2019-01-12T15:54:55.322Z,88.20
2019-01-12T15:57:23.550Z,89.00
2019-01-12T15:59:51.754Z,90.10
2019-01-12T16:02:19.844Z,90.30
2019-01-12T16:04:47.997Z,90.50
2019-01-12T16:07:16.404Z,90.20
2019-01-12T16:09:44.754Z,90.50
2019-01-12T16:12:13.095Z,90.50
2019-01-12T16:14:41.128Z,90.80
2019-01-12T16:17:09.319Z,91.20
2019-01-12T16:19:37.480Z,91.10
2019-01-12T16:22:05.617Z,90.70
2019-01-12T16:24:33.742Z,91.10
2019-01-12T16:27:01.987Z,90.90
2019-01-12T16:29:30.550Z,90.80
2019-01-12T16:31:58.666Z,90.90
2019-01-12T16:34:26.899Z,90.60
2019-01-12T16:36:55.176Z,90.70
2019-01-12T16:39:23.302Z,90.70
2019-01-12T16:41:51.438Z,90.90
2019-01-12T16:44:19.758Z,91.20
2019-01-12T16:46:47.901Z,91.30
2019-01-12T16:49:16.171Z,91.40
2019-01-12T16:51:44.365Z,91.80
2019-01-12T16:54:12.425Z,91.50
2019-01-12T16:56:40.670Z,91.90
2019-01-12T16:59:09.110Z,91.90
2019-01-12T17:01:37.274Z,92.00
2019-01-12T17:04:05.566Z,91.80
2019-01-12T17:06:33.819Z,91.80
2019-01-12T17:09:02.169Z,91.80
2019-01-12T17:11:32.212Z,91.90
2019-01-12T17:14:00.473Z,91.70
2019-01-12T17:16:28.775Z,92.00
2019-01-12T17:18:56.901Z,92.00
2019-01-12T17:21:25.386Z,91.80
2019-01-12T17:23:53.700Z,91.70
2019-01-12T17:26:21.891Z,91.60
2019-01-12T17:28:50.111Z,91.80
2019-01-12T17:31:18.291Z,91.60
2019-01-12T17:33:46.379Z,91.20
2019-01-12T17:36:14.500Z,91.20
2019-01-12T17:38:42.613Z,91.50
2019-01-12T17:41:10.982Z,91.20
2019-01-12T17:43:39.485Z,91.30
2019-01-12T17:46:11.333Z,91.10
2019-01-12T17:48:39.510Z,91.20
2019-01-12T17:51:07.586Z,91.20
2019-01-12T17:53:35.831Z,90.70
2019-01-12T17:56:04.450Z,90.60
2019-01-12T17:58:32.540Z,90.80
2019-01-12T18:01:00.617Z,90.90
2019-01-12T18:03:28.844Z,91.10
2019-01-12T18:05:57.046Z,90.60
2019-01-12T18:08:25.249Z,90.60
2019-01-12T18:10:53.470Z,90.60
2019-01-12T18:13:21.636Z,90.80
2019-01-12T18:15:49.904Z,90.90
2019-01-12T18:18:18.246Z,91.00
2019-01-12T18:20:46.687Z,91.10
2019-01-12T18:23:15.089Z,91.00
2019-01-12T18:25:43.391Z,91.10
2019-01-12T18:28:11.542Z,91.20
2019-01-12T18:30:40.101Z,91.10
2019-01-12T18:33:08.576Z,91.30
2019-01-12T18:35:36.690Z,91.30
2019-01-12T18:38:04.948Z,91.20
2019-01-12T18:40:33.383Z,91.10
2019-01-12T18:43:01.787Z,91.40
2019-01-12T18:45:29.965Z,91.40
2019-01-12T18:47:58.227Z,91.40
2019-01-12T18:50:26.833Z,91.40
2019-01-12T18:52:55.396Z,91.80
2019-01-12T18:55:23.732Z,91.70
2019-01-12T18:57:52.224Z,91.80
2019-01-12T19:00:24.958Z,91.70
2019-01-12T19:02:53.519Z,91.80
2019-01-12T19:05:22.202Z,91.50
2019-01-12T19:07:50.609Z,91.50
2019-01-12T19:10:18.832Z,91.60
2019-01-12T19:12:47.091Z,91.40
2019-01-12T19:15:21.016Z,91.30
2019-01-12T19:17:49.464Z,91.30
2019-01-12T19:20:17.851Z,91.30
2019-01-12T19:22:46.598Z,91.20
2019-01-12T19:25:15.029Z,91.10
2019-01-12T19:27:43.462Z,91.10
2019-01-12T19:30:14.079Z,90.90
2019-01-12T19:32:42.413Z,91.00
2019-01-12T19:35:10.785Z,90.90
2019-01-12T19:37:39.041Z,90.90
2019-01-12T19:40:10.397Z,91.00
2019-01-12T19:42:39.084Z,91.40
2019-01-12T19:45:08.617Z,91.60
2019-01-12T19:47:36.842Z,91.60
2019-01-12T19:50:06.169Z,91.70
2019-01-12T19:52:34.425Z,91.90
2019-01-12T19:55:02.521Z,92.10
2019-01-12T19:57:30.690Z,92.10
2019-01-12T19:59:58.897Z,92.30
2019-01-12T20:02:27.306Z,92.50
2019-01-12T20:04:55.529Z,92.60
2019-01-12T20:07:23.677Z,92.70
2019-01-12T20:09:51.918Z,92.80
2019-01-12T20:12:20.203Z,93.00
2019-01-12T20:14:48.405Z,92.90
2019-01-12T20:17:16.741Z,92.90
2019-01-12T20:19:45.072Z,92.90
2019-01-12T20:22:13.401Z,92.80
2019-01-12T20:24:41.363Z,92.70
2019-01-12T20:27:09.480Z,92.80
2019-01-12T20:29:37.860Z,92.70
2019-01-12T20:32:50.338Z,92.40
2019-01-12T20:35:49.209Z,92.40
2019-01-12T20:38:34.333Z,92.50
2019-01-12T20:41:34.108Z,92.50
2019-01-12T20:44:44.080Z,92.60
2019-01-12T20:48:00.158Z,92.60
2019-01-12T20:51:03.239Z,92.60
2019-01-12T20:54:13.585Z,92.50
2019-01-12T20:57:19.537Z,92.50
2019-01-12T21:00:18.016Z,92.60
2019-01-12T21:02:58.083Z,92.60
2019-01-12T21:05:59.162Z,92.40
2019-01-12T21:08:44.324Z,92.40
2019-01-12T21:11:52.250Z,92.40
2019-01-12T21:14:49.359Z,92.40
2019-01-12T21:17:18.159Z,92.30
2019-01-12T21:19:48.367Z,92.10
2019-01-12T21:22:16.220Z,92.10
2019-01-12T21:24:45.421Z,92.10
2019-01-12T21:27:13.710Z,92.10
2019-01-12T21:29:41.736Z,92.00
2019-01-12T21:32:10.015Z,92.10
2019-01-12T21:34:38.132Z,92.20
2019-01-12T21:37:06.381Z,92.20
2019-01-12T21:39:34.661Z,92.10
2019-01-12T21:42:03.575Z,92.30
2019-01-12T21:44:32.109Z,92.30
2019-01-12T21:47:00.447Z,92.10
2019-01-12T21:49:28.854Z,92.00
2019-01-12T21:51:57.136Z,91.90
2019-01-12T21:54:25.477Z,92.10
2019-01-12T21:56:54.662Z,92.00
2019-01-12T21:59:23.014Z,91.70
2019-01-12T22:01:51.170Z,91.60
2019-01-12T22:04:20.496Z,91.60
2019-01-12T22:06:48.573Z,91.70
2019-01-12T22:09:16.949Z,91.60
2019-01-12T22:11:45.157Z,91.50
2019-01-12T22:14:13.438Z,91.50
2019-01-12T22:16:41.678Z,91.50
2019-01-12T22:19:09.752Z,91.60
2019-01-12T22:21:38.090Z,91.50
2019-01-12T22:24:06.327Z,91.30
2019-01-12T22:26:34.940Z,90.90
2019-01-12T22:29:03.369Z,91.20
2019-01-12T22:31:31.518Z,91.30
2019-01-12T22:33:59.884Z,91.40
2019-01-12T22:36:28.057Z,91.40
2019-01-12T22:38:56.341Z,91.50
2019-01-12T22:41:24.459Z,91.40
2019-01-12T22:43:52.479Z,91.50
2019-01-12T22:46:20.477Z,91.50
2019-01-12T22:48:48.637Z,91.40
2019-01-12T22:51:16.842Z,91.30
2019-01-12T22:53:45.005Z,91.30
2019-01-12T22:56:13.390Z,91.30
2019-01-12T22:58:41.545Z,91.40
2019-01-12T23:01:50.615Z,91.40
2019-01-12T23:04:20.797Z,91.40
2019-01-12T23:06:49.311Z,91.30
2019-01-12T23:09:17.152Z,91.50
2019-01-12T23:11:45.223Z,91.50
2019-01-12T23:14:13.372Z,91.40
2019-01-12T23:16:41.493Z,91.40
2019-01-12T23:19:09.967Z,91.50
2019-01-12T23:21:38.435Z,91.20
2019-01-12T23:24:06.785Z,91.30
2019-01-12T23:26:34.915Z,91.40
2019-01-12T23:29:03.444Z,91.40
2019-01-12T23:31:31.719Z,91.50
2019-01-12T23:33:59.829Z,91.60
2019-01-12T23:36:28.584Z,91.60
2019-01-12T23:38:56.756Z,91.50
2019-01-12T23:41:24.957Z,91.50
2019-01-12T23:43:53.110Z,91.50
2019-01-12T23:46:21.387Z,91.60
2019-01-12T23:48:49.603Z,91.70
2019-01-12T23:51:18.985Z,91.70
2019-01-12T23:53:47.253Z,91.70
2019-01-12T23:56:15.338Z,91.60
2019-01-12T23:58:43.483Z,91.40
